sensor_id;sensor_type;location;lat;lon;timestamp;pressure;altitude;pressure_sealevel;temperature;humidity
69909;BME280;57190;47.918;8.112;2023-07-13T00:01:43;91064.25;;;15.99;75.36
69909;BME280;57190;47.918;8.112;2023-07-13T00:04:09;91074.53;;;15.97;75.33
69909;BME280;57190;47.918;8.112;2023-07-13T00:06:34;91083.97;;;15.95;75.78
69909;BME280;57190;47.918;8.112;2023-07-13T00:09:01;91076.41;;;15.97;75.39
69909;BME280;57190;47.918;8.112;2023-07-13T00:11:27;91068.06;;;15.98;75.68
69909;BME280;57190;47.918;8.112;2023-07-13T00:13:53;91070.44;;;16.00;75.61
69909;BME280;57190;47.918;8.112;2023-07-13T00:16:19;91064.53;;;15.98;75.60
69909;BME280;57190;47.918;8.112;2023-07-13T00:18:45;91064.63;;;15.93;75.97
69909;BME280;57190;47.918;8.112;2023-07-13T00:21:11;91064.63;;;15.93;75.43
69909;BME280;57190;47.918;8.112;2023-07-13T00:23:40;91065.44;;;15.93;75.85
69909;BME280;57190;47.918;8.112;2023-07-13T00:26:08;91055.47;;;15.94;75.74
69909;BME280;57190;47.918;8.112;2023-07-13T00:28:35;91059.47;;;15.96;75.56
69909;BME280;57190;47.918;8.112;2023-07-13T00:31:01;91046.31;;;15.95;75.90
69909;BME280;57190;47.918;8.112;2023-07-13T00:33:28;91046.69;;;15.88;75.65
69909;BME280;57190;47.918;8.112;2023-07-13T00:35:55;91046.19;;;15.86;75.26
69909;BME280;57190;47.918;8.112;2023-07-13T00:38:22;91048.09;;;15.85;75.84
69909;BME280;57190;47.918;8.112;2023-07-13T00:40:48;91047.00;;;15.86;75.70
69909;BME280;57190;47.918;8.112;2023-07-13T00:43:18;91054.75;;;15.88;75.25
69909;BME280;57190;47.918;8.112;2023-07-13T00:48:18;91053.16;;;15.87;75.11
69909;BME280;57190;47.918;8.112;2023-07-13T00:50:48;91054.81;;;15.83;74.28
69909;BME280;57190;47.918;8.112;2023-07-13T00:53:15;91056.19;;;15.80;74.43
69909;BME280;57190;47.918;8.112;2023-07-13T00:55:42;91059.38;;;15.82;73.94
69909;BME280;57190;47.918;8.112;2023-07-13T00:58:07;91059.13;;;15.84;73.68
69909;BME280;57190;47.918;8.112;2023-07-13T01:00:36;91053.75;;;15.84;73.62
69909;BME280;57190;47.918;8.112;2023-07-13T01:03:04;91052.09;;;15.83;73.96
69909;BME280;57190;47.918;8.112;2023-07-13T01:05:32;91051.41;;;15.77;73.60
69909;BME280;57190;47.918;8.112;2023-07-13T01:07:59;91048.53;;;15.74;72.77
69909;BME280;57190;47.918;8.112;2023-07-13T01:10:26;91044.28;;;15.67;72.26
69909;BME280;57190;47.918;8.112;2023-07-13T01:12:53;91044.38;;;15.62;71.44
69909;BME280;57190;47.918;8.112;2023-07-13T01:15:42;91048.25;;;15.56;71.69
69909;BME280;57190;47.918;8.112;2023-07-13T01:18:13;91041.47;;;15.59;71.10
69909;BME280;57190;47.918;8.112;2023-07-13T01:20:40;91041.19;;;15.60;71.50
69909;BME280;57190;47.918;8.112;2023-07-13T01:23:10;91039.09;;;15.57;71.07
69909;BME280;57190;47.918;8.112;2023-07-13T01:25:38;91035.69;;;15.51;71.48
69909;BME280;57190;47.918;8.112;2023-07-13T01:28:05;91036.34;;;15.43;71.52
69909;BME280;57190;47.918;8.112;2023-07-13T01:30:31;91042.59;;;15.38;71.72
69909;BME280;57190;47.918;8.112;2023-07-13T01:32:58;91038.59;;;15.36;71.93
69909;BME280;57190;47.918;8.112;2023-07-13T01:35:24;91032.56;;;15.25;71.31
69909;BME280;57190;47.918;8.112;2023-07-13T01:37:51;91032.72;;;15.15;70.63
69909;BME280;57190;47.918;8.112;2023-07-13T01:40:16;91033.09;;;15.08;70.41
69909;BME280;57190;47.918;8.112;2023-07-13T01:42:42;91036.94;;;15.02;69.34
69909;BME280;57190;47.918;8.112;2023-07-13T01:45:08;91034.03;;;14.98;68.85
69909;BME280;57190;47.918;8.112;2023-07-13T01:47:33;91029.53;;;14.93;68.79
69909;BME280;57190;47.918;8.112;2023-07-13T01:49:59;91021.25;;;14.90;68.82
69909;BME280;57190;47.918;8.112;2023-07-13T01:52:24;91017.38;;;14.77;68.49
69909;BME280;57190;47.918;8.112;2023-07-13T01:54:50;91022.50;;;14.73;68.52
69909;BME280;57190;47.918;8.112;2023-07-13T01:57:15;91031.16;;;14.70;68.49
69909;BME280;57190;47.918;8.112;2023-07-13T01:59:41;91033.31;;;14.68;68.81
69909;BME280;57190;47.918;8.112;2023-07-13T02:02:06;91033.63;;;14.67;68.72
69909;BME280;57190;47.918;8.112;2023-07-13T02:04:33;91027.69;;;14.65;69.00
69909;BME280;57190;47.918;8.112;2023-07-13T02:06:58;91032.28;;;14.64;69.19
69909;BME280;57190;47.918;8.112;2023-07-13T02:09:24;91032.31;;;14.59;69.04
69909;BME280;57190;47.918;8.112;2023-07-13T02:11:50;91031.75;;;14.62;68.90
69909;BME280;57190;47.918;8.112;2023-07-13T02:14:15;91036.06;;;14.63;68.34
69909;BME280;57190;47.918;8.112;2023-07-13T02:16:41;91033.63;;;14.61;67.42
69909;BME280;57190;47.918;8.112;2023-07-13T02:19:07;91027.78;;;14.59;67.12
69909;BME280;57190;47.918;8.112;2023-07-13T02:21:33;91025.13;;;14.54;67.62
69909;BME280;57190;47.918;8.112;2023-07-13T02:23:59;91023.81;;;14.52;68.66
69909;BME280;57190;47.918;8.112;2023-07-13T02:26:25;91022.28;;;14.45;68.98
69909;BME280;57190;47.918;8.112;2023-07-13T02:28:51;91016.25;;;14.35;68.55
69909;BME280;57190;47.918;8.112;2023-07-13T02:31:17;91023.34;;;14.25;68.77
69909;BME280;57190;47.918;8.112;2023-07-13T02:33:42;91022.81;;;14.23;69.23
69909;BME280;57190;47.918;8.112;2023-07-13T02:36:09;91024.44;;;14.19;69.89
69909;BME280;57190;47.918;8.112;2023-07-13T02:38:35;91015.63;;;14.19;69.94
69909;BME280;57190;47.918;8.112;2023-07-13T02:41:06;91016.69;;;14.18;70.60
69909;BME280;57190;47.918;8.112;2023-07-13T02:43:33;91015.44;;;14.10;71.04
69909;BME280;57190;47.918;8.112;2023-07-13T02:46:00;91009.78;;;14.11;71.26
69909;BME280;57190;47.918;8.112;2023-07-13T02:48:36;91006.66;;;14.04;71.64
69909;BME280;57190;47.918;8.112;2023-07-13T02:51:01;91015.81;;;13.98;72.08
69909;BME280;57190;47.918;8.112;2023-07-13T02:53:27;91010.75;;;13.96;72.18
69909;BME280;57190;47.918;8.112;2023-07-13T02:55:53;91013.72;;;13.95;71.60
69909;BME280;57190;47.918;8.112;2023-07-13T02:58:18;91010.56;;;13.88;70.97
69909;BME280;57190;47.918;8.112;2023-07-13T03:00:45;91005.53;;;13.81;69.96
69909;BME280;57190;47.918;8.112;2023-07-13T03:03:12;91012.03;;;13.75;69.96
69909;BME280;57190;47.918;8.112;2023-07-13T03:05:41;91012.28;;;13.73;69.99
69909;BME280;57190;47.918;8.112;2023-07-13T03:08:08;91008.53;;;13.74;70.11
69909;BME280;57190;47.918;8.112;2023-07-13T03:10:33;91010.19;;;13.70;69.75
69909;BME280;57190;47.918;8.112;2023-07-13T03:12:59;91012.06;;;13.70;69.53
69909;BME280;57190;47.918;8.112;2023-07-13T03:15:24;91015.59;;;13.65;69.93
69909;BME280;57190;47.918;8.112;2023-07-13T03:17:50;91021.47;;;13.67;70.27
69909;BME280;57190;47.918;8.112;2023-07-13T03:20:16;91018.50;;;13.68;70.49
69909;BME280;57190;47.918;8.112;2023-07-13T03:22:42;91020.44;;;13.63;70.88
69909;BME280;57190;47.918;8.112;2023-07-13T03:25:07;91019.88;;;13.66;71.08
69909;BME280;57190;47.918;8.112;2023-07-13T03:27:33;91019.88;;;13.66;70.98
69909;BME280;57190;47.918;8.112;2023-07-13T03:29:59;91026.31;;;13.65;71.17
69909;BME280;57190;47.918;8.112;2023-07-13T03:32:24;91027.66;;;13.67;71.13
69909;BME280;57190;47.918;8.112;2023-07-13T03:34:50;91026.31;;;13.65;71.06
69909;BME280;57190;47.918;8.112;2023-07-13T03:37:21;91034.09;;;13.66;71.12
69909;BME280;57190;47.918;8.112;2023-07-13T03:39:47;91027.88;;;13.71;71.08
69909;BME280;57190;47.918;8.112;2023-07-13T03:42:12;91025.19;;;13.71;69.94
69909;BME280;57190;47.918;8.112;2023-07-13T03:44:40;91038.41;;;13.62;70.35
69909;BME280;57190;47.918;8.112;2023-07-13T03:47:05;91036.31;;;13.54;70.80
69909;BME280;57190;47.918;8.112;2023-07-13T03:49:31;91024.00;;;13.53;70.97
69909;BME280;57190;47.918;8.112;2023-07-13T03:51:57;91036.06;;;13.56;71.10
69909;BME280;57190;47.918;8.112;2023-07-13T03:54:23;91031.47;;;13.56;71.10
69909;BME280;57190;47.918;8.112;2023-07-13T03:56:48;91023.97;;;13.58;70.88
69909;BME280;57190;47.918;8.112;2023-07-13T03:59:14;91024.75;;;13.59;70.50
69909;BME280;57190;47.918;8.112;2023-07-13T04:01:39;91027.97;;;13.61;70.13
69909;BME280;57190;47.918;8.112;2023-07-13T04:04:05;91042.16;;;13.61;70.20
69909;BME280;57190;47.918;8.112;2023-07-13T04:06:32;91042.97;;;13.62;70.71
69909;BME280;57190;47.918;8.112;2023-07-13T04:08:59;91039.94;;;13.68;70.47
69909;BME280;57190;47.918;8.112;2023-07-13T04:11:28;91025.75;;;13.68;70.55
69909;BME280;57190;47.918;8.112;2023-07-13T04:13:53;91028.44;;;13.68;69.85
69909;BME280;57190;47.918;8.112;2023-07-13T04:16:19;91022.06;;;13.64;70.19
69909;BME280;57190;47.918;8.112;2023-07-13T04:18:46;91038.16;;;13.59;70.30
69909;BME280;57190;47.918;8.112;2023-07-13T04:21:13;91038.41;;;13.62;69.98
69909;BME280;57190;47.918;8.112;2023-07-13T04:23:39;91038.38;;;13.67;70.34
69909;BME280;57190;47.918;8.112;2023-07-13T04:26:04;91048.25;;;13.72;70.77
69909;BME280;57190;47.918;8.112;2023-07-13T04:28:30;91053.56;;;13.77;71.35
69909;BME280;57190;47.918;8.112;2023-07-13T04:30:56;91055.16;;;13.78;72.05
69909;BME280;57190;47.918;8.112;2023-07-13T04:33:22;91061.28;;;13.84;72.25
69909;BME280;57190;47.918;8.112;2023-07-13T04:35:52;91060.69;;;13.87;72.20
69909;BME280;57190;47.918;8.112;2023-07-13T04:38:20;91064.97;;;13.88;71.80
69909;BME280;57190;47.918;8.112;2023-07-13T04:40:45;91063.91;;;13.89;72.36
69909;BME280;57190;47.918;8.112;2023-07-13T04:43:11;91062.81;;;13.90;73.08
69909;BME280;57190;47.918;8.112;2023-07-13T04:45:37;91062.59;;;13.87;73.92
69909;BME280;57190;47.918;8.112;2023-07-13T04:48:02;91073.25;;;13.97;73.67
69909;BME280;57190;47.918;8.112;2023-07-13T04:50:28;91065.91;;;14.03;73.14
69909;BME280;57190;47.918;8.112;2023-07-13T04:52:53;91068.84;;;14.06;72.49
69909;BME280;57190;47.918;8.112;2023-07-13T04:55:22;91071.47;;;14.11;72.17
69909;BME280;57190;47.918;8.112;2023-07-13T04:57:47;91073.03;;;14.18;72.04
69909;BME280;57190;47.918;8.112;2023-07-13T05:00:13;91069.78;;;14.21;72.52
69909;BME280;57190;47.918;8.112;2023-07-13T05:02:43;91064.13;;;14.22;72.71
69909;BME280;57190;47.918;8.112;2023-07-13T05:05:09;91078.34;;;14.23;72.63
69909;BME280;57190;47.918;8.112;2023-07-13T05:07:35;91084.44;;;14.28;72.71
69909;BME280;57190;47.918;8.112;2023-07-13T05:10:01;91086.88;;;14.30;72.75
69909;BME280;57190;47.918;8.112;2023-07-13T05:12:28;91091.66;;;14.33;73.21
69909;BME280;57190;47.918;8.112;2023-07-13T05:14:53;91092.69;;;14.37;73.40
69909;BME280;57190;47.918;8.112;2023-07-13T05:17:19;91096.97;;;14.38;73.52
69909;BME280;57190;47.918;8.112;2023-07-13T05:19:44;91090.47;;;14.44;73.13
69909;BME280;57190;47.918;8.112;2023-07-13T05:22:10;91097.38;;;14.51;72.61
69909;BME280;57190;47.918;8.112;2023-07-13T05:24:35;91099.66;;;14.62;73.16
69909;BME280;57190;47.918;8.112;2023-07-13T05:27:01;91102.56;;;14.71;72.94
69909;BME280;57190;47.918;8.112;2023-07-13T05:29:26;91109.53;;;14.72;72.59
69909;BME280;57190;47.918;8.112;2023-07-13T05:31:52;91114.91;;;14.72;72.38
69909;BME280;57190;47.918;8.112;2023-07-13T05:34:18;91112.78;;;14.69;71.06
69909;BME280;57190;47.918;8.112;2023-07-13T05:36:44;91117.97;;;14.60;71.19
69909;BME280;57190;47.918;8.112;2023-07-13T05:39:13;91121.63;;;14.70;71.64
69909;BME280;57190;47.918;8.112;2023-07-13T05:41:38;91120.28;;;14.72;71.52
69909;BME280;57190;47.918;8.112;2023-07-13T05:44:05;91131.25;;;14.76;71.12
69909;BME280;57190;47.918;8.112;2023-07-13T05:46:30;91126.59;;;14.82;70.24
69909;BME280;57190;47.918;8.112;2023-07-13T05:48:56;91119.00;;;14.89;70.76
69909;BME280;57190;47.918;8.112;2023-07-13T05:51:21;91127.78;;;14.94;70.33
69909;BME280;57190;47.918;8.112;2023-07-13T05:53:47;91124.53;;;14.98;70.24
69909;BME280;57190;47.918;8.112;2023-07-13T05:56:12;91122.06;;;15.01;70.34
69909;BME280;57190;47.918;8.112;2023-07-13T05:58:38;91125.81;;;15.05;70.31
69909;BME280;57190;47.918;8.112;2023-07-13T06:01:06;91129.44;;;15.15;69.97
69909;BME280;57190;47.918;8.112;2023-07-13T06:03:32;91122.84;;;15.26;69.57
69909;BME280;57190;47.918;8.112;2023-07-13T06:05:58;91124.22;;;15.23;69.59
69909;BME280;57190;47.918;8.112;2023-07-13T06:08:25;91139.47;;;15.28;69.87
69909;BME280;57190;47.918;8.112;2023-07-13T06:10:51;91130.63;;;15.47;69.40
69909;BME280;57190;47.918;8.112;2023-07-13T06:13:16;91134.06;;;15.52;69.43
69909;BME280;57190;47.918;8.112;2023-07-13T06:15:42;91138.06;;;15.55;69.58
69909;BME280;57190;47.918;8.112;2023-07-13T06:18:07;91134.75;;;15.58;69.17
69909;BME280;57190;47.918;8.112;2023-07-13T06:20:34;91134.75;;;15.58;69.34
69909;BME280;57190;47.918;8.112;2023-07-13T06:23:01;91132.28;;;15.62;69.29
69909;BME280;57190;47.918;8.112;2023-07-13T06:25:26;91128.28;;;15.78;68.57
69909;BME280;57190;47.918;8.112;2023-07-13T06:27:52;91134.69;;;16.01;68.05
69909;BME280;57190;47.918;8.112;2023-07-13T06:30:17;91141.44;;;16.18;67.55
69909;BME280;57190;47.918;8.112;2023-07-13T06:32:43;91145.78;;;16.33;66.93
69909;BME280;57190;47.918;8.112;2023-07-13T06:35:08;91143.38;;;16.31;66.80
69909;BME280;57190;47.918;8.112;2023-07-13T06:37:37;91148.97;;;16.35;65.74
69909;BME280;57190;47.918;8.112;2023-07-13T06:40:03;91147.16;;;16.30;66.08
69909;BME280;57190;47.918;8.112;2023-07-13T06:42:29;91145.78;;;16.33;65.18
69909;BME280;57190;47.918;8.112;2023-07-13T06:44:54;91148.63;;;16.56;65.10
69909;BME280;57190;47.918;8.112;2023-07-13T06:47:20;91152.84;;;16.62;65.08
69909;BME280;57190;47.918;8.112;2023-07-13T06:49:45;91154.59;;;16.66;64.68
69909;BME280;57190;47.918;8.112;2023-07-13T06:52:11;91151.75;;;16.77;64.29
69909;BME280;57190;47.918;8.112;2023-07-13T06:54:36;91143.97;;;16.89;63.35
69909;BME280;57190;47.918;8.112;2023-07-13T06:57:02;91139.09;;;16.91;62.35
69909;BME280;57190;47.918;8.112;2023-07-13T06:59:27;91142.00;;;17.09;61.55
69909;BME280;57190;47.918;8.112;2023-07-13T07:01:53;91137.44;;;17.23;59.53
69909;BME280;57190;47.918;8.112;2023-07-13T07:04:18;91138.53;;;17.22;60.17
69909;BME280;57190;47.918;8.112;2023-07-13T07:06:44;91143.72;;;17.33;58.25
69909;BME280;57190;47.918;8.112;2023-07-13T07:09:10;91145.72;;;17.27;59.15
69909;BME280;57190;47.918;8.112;2023-07-13T07:11:35;91148.91;;;17.29;59.47
69909;BME280;57190;47.918;8.112;2023-07-13T07:14:01;91151.94;;;17.50;59.63
69909;BME280;57190;47.918;8.112;2023-07-13T07:16:26;91143.84;;;17.64;59.69
69909;BME280;57190;47.918;8.112;2023-07-13T07:18:52;91153.00;;;17.77;58.85
69909;BME280;57190;47.918;8.112;2023-07-13T07:21:17;91151.09;;;17.91;58.16
69909;BME280;57190;47.918;8.112;2023-07-13T07:23:43;91161.56;;;17.93;57.21
69909;BME280;57190;47.918;8.112;2023-07-13T07:26:09;91160.28;;;17.90;57.16
69909;BME280;57190;47.918;8.112;2023-07-13T07:28:36;91167.50;;;17.81;57.75
69909;BME280;57190;47.918;8.112;2023-07-13T07:31:01;91166.69;;;17.81;58.54
69909;BME280;57190;47.918;8.112;2023-07-13T07:33:27;91166.59;;;17.86;58.88
69909;BME280;57190;47.918;8.112;2023-07-13T07:35:52;91162.88;;;17.82;59.20
69909;BME280;57190;47.918;8.112;2023-07-13T07:38:18;91158.59;;;17.81;58.47
69909;BME280;57190;47.918;8.112;2023-07-13T07:40:44;91158.44;;;17.63;58.57
69909;BME280;57190;47.918;8.112;2023-07-13T07:43:11;91160.03;;;17.50;58.10
69909;BME280;57190;47.918;8.112;2023-07-13T07:45:38;91166.66;;;17.44;58.71
69909;BME280;57190;47.918;8.112;2023-07-13T07:48:05;91164.25;;;17.42;59.02
69909;BME280;57190;47.918;8.112;2023-07-13T07:50:31;91170.56;;;17.38;58.87
69909;BME280;57190;47.918;8.112;2023-07-13T07:52:57;91170.56;;;17.38;59.42
69909;BME280;57190;47.918;8.112;2023-07-13T07:55:23;91166.13;;;17.70;58.10
69909;BME280;57190;47.918;8.112;2023-07-13T07:57:50;91167.56;;;17.90;56.87
69909;BME280;57190;47.918;8.112;2023-07-13T08:00:16;91160.53;;;18.17;56.55
69909;BME280;57190;47.918;8.112;2023-07-13T08:02:43;91162.97;;;18.27;55.40
69909;BME280;57190;47.918;8.112;2023-07-13T08:05:10;91168.25;;;18.32;54.46
69909;BME280;57190;47.918;8.112;2023-07-13T08:07:37;91170.28;;;18.49;54.02
69909;BME280;57190;47.918;8.112;2023-07-13T08:10:04;91172.22;;;18.80;55.08
69909;BME280;57190;47.918;8.112;2023-07-13T08:12:34;91176.31;;;19.00;53.87
69909;BME280;57190;47.918;8.112;2023-07-13T08:15:00;91169.03;;;19.01;54.40
69909;BME280;57190;47.918;8.112;2023-07-13T08:17:26;91170.94;;;18.78;54.79
69909;BME280;57190;47.918;8.112;2023-07-13T08:19:52;91176.22;;;18.60;54.29
69909;BME280;57190;47.918;8.112;2023-07-13T08:22:17;91173.84;;;18.36;54.21
69909;BME280;57190;47.918;8.112;2023-07-13T08:24:43;91179.69;;;18.29;54.81
69909;BME280;57190;47.918;8.112;2023-07-13T08:27:10;91180.97;;;18.32;55.06
69909;BME280;57190;47.918;8.112;2023-07-13T08:29:39;91182.00;;;18.45;54.25
69909;BME280;57190;47.918;8.112;2023-07-13T08:32:06;91176.38;;;18.55;54.37
69909;BME280;57190;47.918;8.112;2023-07-13T08:34:35;91183.63;;;18.46;54.12
69909;BME280;57190;47.918;8.112;2023-07-13T08:37:01;91170.97;;;18.55;52.71
69909;BME280;57190;47.918;8.112;2023-07-13T08:39:29;91174.13;;;18.80;53.48
69909;BME280;57190;47.918;8.112;2023-07-13T08:42:00;91179.38;;;19.08;52.72
69909;BME280;57190;47.918;8.112;2023-07-13T08:44:57;91170.50;;;19.16;52.14
69909;BME280;57190;47.918;8.112;2023-07-13T08:47:31;91174.09;;;19.34;52.25
69909;BME280;57190;47.918;8.112;2023-07-13T08:49:59;91173.94;;;19.48;52.55
69909;BME280;57190;47.918;8.112;2023-07-13T08:52:35;91185.75;;;19.61;50.66
69909;BME280;57190;47.918;8.112;2023-07-13T08:55:09;91182.50;;;19.32;50.75
69909;BME280;57190;47.918;8.112;2023-07-13T08:57:38;91183.50;;;19.05;51.94
69909;BME280;57190;47.918;8.112;2023-07-13T09:00:09;91174.59;;;19.05;52.73
69909;BME280;57190;47.918;8.112;2023-07-13T09:02:57;91180.31;;;19.03;52.62
69909;BME280;57190;47.918;8.112;2023-07-13T09:05:31;91190.59;;;18.92;52.60
69909;BME280;57190;47.918;8.112;2023-07-13T09:08:33;91187.69;;;18.89;53.59
69909;BME280;57190;47.918;8.112;2023-07-13T09:16:27;91186.25;;;19.54;51.72
69909;BME280;57190;47.918;8.112;2023-07-13T09:18:56;91186.28;;;19.72;52.60
69909;BME280;57190;47.918;8.112;2023-07-13T09:21:28;91190.44;;;19.78;52.26
69909;BME280;57190;47.918;8.112;2023-07-13T09:24:00;91188.63;;;19.56;53.00
69909;BME280;57190;47.918;8.112;2023-07-13T09:26:28;91189.59;;;19.20;52.35
69909;BME280;57190;47.918;8.112;2023-07-13T09:29:06;91190.69;;;19.19;53.16
69909;BME280;57190;47.918;8.112;2023-07-13T09:31:42;91188.50;;;19.21;53.12
69909;BME280;57190;47.918;8.112;2023-07-13T09:34:11;91189.66;;;19.37;53.60
69909;BME280;57190;47.918;8.112;2023-07-13T09:36:37;91190.41;;;19.69;52.91
69909;BME280;57190;47.918;8.112;2023-07-13T09:41:58;91188.34;;;19.75;51.98
69909;BME280;57190;47.918;8.112;2023-07-13T09:44:37;91191.22;;;19.70;53.03
69909;BME280;57190;47.918;8.112;2023-07-13T09:47:15;91187.84;;;19.64;53.15
69909;BME280;57190;47.918;8.112;2023-07-13T09:49:41;91188.13;;;20.03;52.76
69909;BME280;57190;47.918;8.112;2023-07-13T09:52:12;91192.44;;;20.39;53.08
69909;BME280;57190;47.918;8.112;2023-07-13T09:54:37;91193.72;;;20.24;50.70
69909;BME280;57190;47.918;8.112;2023-07-13T09:57:12;91197.22;;;20.51;50.66
69909;BME280;57190;47.918;8.112;2023-07-13T09:59:45;91194.66;;;20.81;50.52
69909;BME280;57190;47.918;8.112;2023-07-13T10:02:32;91187.00;;;20.74;47.96
69909;BME280;57190;47.918;8.112;2023-07-13T10:05:06;91199.91;;;20.68;48.61
69909;BME280;57190;47.918;8.112;2023-07-13T10:07:38;91206.00;;;20.56;50.30
69909;BME280;57190;47.918;8.112;2023-07-13T10:10:16;91203.75;;;20.76;50.05
69909;BME280;57190;47.918;8.112;2023-07-13T10:12:43;91203.09;;;20.70;49.47
69909;BME280;57190;47.918;8.112;2023-07-13T10:15:18;91194.84;;;20.76;50.52
69909;BME280;57190;47.918;8.112;2023-07-13T10:17:45;91197.81;;;21.00;48.49
69909;BME280;57190;47.918;8.112;2023-07-13T10:20:11;91203.25;;;21.00;49.67
69909;BME280;57190;47.918;8.112;2023-07-13T10:22:57;91211.09;;;20.76;49.09
69909;BME280;57190;47.918;8.112;2023-07-13T10:25:26;91206.94;;;20.52;50.39
69909;BME280;57190;47.918;8.112;2023-07-13T10:27:58;91207.25;;;20.41;50.51
69909;BME280;57190;47.918;8.112;2023-07-13T10:30:31;91203.72;;;20.41;50.08
69909;BME280;57190;47.918;8.112;2023-07-13T10:33:00;91206.31;;;20.46;49.69
69909;BME280;57190;47.918;8.112;2023-07-13T10:35:28;91208.06;;;20.68;49.30
69909;BME280;57190;47.918;8.112;2023-07-13T10:38:06;91204.38;;;20.47;50.09
69909;BME280;57190;47.918;8.112;2023-07-13T10:40:44;91216.97;;;20.34;50.03
69909;BME280;57190;47.918;8.112;2023-07-13T10:43:25;91213.94;;;20.26;49.50
69909;BME280;57190;47.918;8.112;2023-07-13T10:45:52;91207.25;;;20.33;49.29
69909;BME280;57190;47.918;8.112;2023-07-13T10:48:20;91204.69;;;20.36;49.09
69909;BME280;57190;47.918;8.112;2023-07-13T10:50:49;91209.63;;;20.17;50.14
69909;BME280;57190;47.918;8.112;2023-07-13T10:53:19;91212.34;;;20.25;49.14
69909;BME280;57190;47.918;8.112;2023-07-13T10:58:20;91214.09;;;20.30;48.89
69909;BME280;57190;47.918;8.112;2023-07-13T11:03:34;91214.88;;;20.66;49.90
69909;BME280;57190;47.918;8.112;2023-07-13T11:06:11;91213.00;;;20.75;49.77
69909;BME280;57190;47.918;8.112;2023-07-13T11:08:58;91208.47;;;21.14;49.39
69909;BME280;57190;47.918;8.112;2023-07-13T11:18:48;91200.41;;;21.83;46.57
69909;BME280;57190;47.918;8.112;2023-07-13T11:21:16;91207.91;;;21.86;46.62
69909;BME280;57190;47.918;8.112;2023-07-13T11:23:43;91212.78;;;21.54;47.50
69909;BME280;57190;47.918;8.112;2023-07-13T11:31:59;91208.16;;;21.63;46.97
69909;BME280;57190;47.918;8.112;2023-07-13T11:34:35;91213.91;;;21.62;46.63
69909;BME280;57190;47.918;8.112;2023-07-13T11:37:01;91195.38;;;21.64;45.31
69909;BME280;57190;47.918;8.112;2023-07-13T11:39:32;91203.06;;;21.62;46.58
69909;BME280;57190;47.918;8.112;2023-07-13T11:42:03;91193.31;;;21.61;45.40
69909;BME280;57190;47.918;8.112;2023-07-13T11:44:31;91192.06;;;21.49;44.80
69909;BME280;57190;47.918;8.112;2023-07-13T11:46:59;91196.22;;;21.47;45.95
69909;BME280;57190;47.918;8.112;2023-07-13T11:49:29;91195.72;;;21.54;44.72
69909;BME280;57190;47.918;8.112;2023-07-13T11:51:55;91191.56;;;21.65;44.99
69909;BME280;57190;47.918;8.112;2023-07-13T11:54:34;91189.81;;;21.60;43.79
69909;BME280;57190;47.918;8.112;2023-07-13T11:59:39;91190.22;;;22.01;46.37
69909;BME280;57190;47.918;8.112;2023-07-13T12:02:15;91197.81;;;21.87;44.07
69909;BME280;57190;47.918;8.112;2023-07-13T12:04:42;91196.91;;;21.82;44.38
69909;BME280;57190;47.918;8.112;2023-07-13T12:07:15;91200.03;;;21.93;45.18
69909;BME280;57190;47.918;8.112;2023-07-13T12:09:42;91199.78;;;22.07;44.53
69909;BME280;57190;47.918;8.112;2023-07-13T12:12:12;91194.94;;;22.13;42.95
69909;BME280;57190;47.918;8.112;2023-07-13T12:14:38;91201.75;;;21.98;43.67
69909;BME280;57190;47.918;8.112;2023-07-13T12:17:20;91198.19;;;22.06;43.03
69909;BME280;57190;47.918;8.112;2023-07-13T12:19:48;91201.09;;;22.01;43.32
69909;BME280;57190;47.918;8.112;2023-07-13T12:22:14;91215.84;;;21.91;44.70
69909;BME280;57190;47.918;8.112;2023-07-13T12:24:43;91211.56;;;21.43;42.37
69909;BME280;57190;47.918;8.112;2023-07-13T12:27:21;91204.84;;;21.01;42.58
69909;BME280;57190;47.918;8.112;2023-07-13T12:33:01;91198.75;;;21.61;42.53
69909;BME280;57190;47.918;8.112;2023-07-13T12:35:31;91205.38;;;22.02;42.45
69909;BME280;57190;47.918;8.112;2023-07-13T12:38:01;91198.13;;;22.45;41.25
69909;BME280;57190;47.918;8.112;2023-07-13T12:40:34;91205.84;;;22.55;39.83
69909;BME280;57190;47.918;8.112;2023-07-13T12:43:00;91198.59;;;22.17;41.37
69909;BME280;57190;47.918;8.112;2023-07-13T12:45:29;91195.97;;;22.51;40.73
69909;BME280;57190;47.918;8.112;2023-07-13T12:47:57;91187.97;;;22.88;40.22
69909;BME280;57190;47.918;8.112;2023-07-13T12:50:41;91197.97;;;23.30;40.38
69909;BME280;57190;47.918;8.112;2023-07-13T12:53:13;91194.56;;;23.20;40.22
69909;BME280;57190;47.918;8.112;2023-07-13T12:55:56;91197.63;;;22.64;40.04
69909;BME280;57190;47.918;8.112;2023-07-13T12:58:38;91193.38;;;23.09;40.51
69909;BME280;57190;47.918;8.112;2023-07-13T13:01:05;91191.38;;;23.18;40.20
69909;BME280;57190;47.918;8.112;2023-07-13T13:03:33;91188.75;;;22.55;38.72
69909;BME280;57190;47.918;8.112;2023-07-13T13:06:04;91192.38;;;22.59;39.15
69909;BME280;57190;47.918;8.112;2023-07-13T13:08:31;91190.31;;;23.11;38.04
69909;BME280;57190;47.918;8.112;2023-07-13T13:10:57;91193.22;;;23.27;38.17
69909;BME280;57190;47.918;8.112;2023-07-13T13:13:23;91196.69;;;22.60;37.88
69909;BME280;57190;47.918;8.112;2023-07-13T13:15:50;91190.63;;;22.12;38.53
69909;BME280;57190;47.918;8.112;2023-07-13T13:18:21;91188.44;;;22.90;38.75
69909;BME280;57190;47.918;8.112;2023-07-13T13:20:49;91191.13;;;23.57;37.79
69909;BME280;57190;47.918;8.112;2023-07-13T13:23:17;91185.06;;;23.27;37.49
69909;BME280;57190;47.918;8.112;2023-07-13T13:25:48;91187.88;;;22.63;39.36
69909;BME280;57190;47.918;8.112;2023-07-13T13:28:19;91196.41;;;22.32;40.00
69909;BME280;57190;47.918;8.112;2023-07-13T13:30:47;91193.44;;;22.67;39.11
69909;BME280;57190;47.918;8.112;2023-07-13T13:33:15;91198.16;;;22.57;39.96
69909;BME280;57190;47.918;8.112;2023-07-13T13:35:41;91202.88;;;21.97;39.24
69909;BME280;57190;47.918;8.112;2023-07-13T13:38:15;91195.72;;;22.43;39.30
69909;BME280;57190;47.918;8.112;2023-07-13T13:40:42;91190.66;;;23.09;37.58